Latest Coastal Weather Observations for Geelong Racecourse

IDV60701

Issued at 8:52 pm EST Tuesday 30 May 2017 (issued every 10 minutes, with the page automatically refreshed every 10 minutes)

About coastal observations | Map of coastal stations | Coastal observations for VIC | Marine services | Other Formats
Station Details ID: 087184 Name: GEELONG RACECOURSE Lat: -38.17 Lon: 144.38 Height: 12.9 m
Data from the previous 72 hours. | See also: Recent months at Geelong Racecourse
Date/Time
EST
Temp
°C
Wind Pressure Rain since
9am
mm
Weather Cloud Vis
km
Sea
Height
m
Swell
Dir  Spd
kts
Gust
kts
hPa Trend Height
m
Period
s
Dir
30/08:30pm 7.1 WSW 4 6 1028.2 - 0.8 - - - - - - -
30/08:00pm 6.8 W 7 9 1027.9 - 0.8 - - - - - - -
30/07:30pm 7.6 W 6 10 1027.6 - 0.8 - - - - - - -
30/07:00pm 7.8 W 6 8 1027.2 - 0.6 - - - - - - -
30/06:30pm 7.9 WSW 5 8 1027.1 - 0.6 - - - - - - -
30/06:00pm 7.9 W 4 7 1026.5 - 0.6 - - - - - - -
30/05:30pm 9.1 WSW 6 10 1026.1 - 0.6 - - - - - - -
30/05:00pm 9.8 SW 9 15 1025.8 - 0.6 - - - - - - -
30/04:30pm 10.4 WSW 8 11 1025.2 - 0.6 - - - - - - -
30/04:00pm 10.6 SW 9 13 1024.7 - 0.6 - - - - - - -
30/03:30pm 11.2 SW 12 17 1024.4 - 0.6 - - - - - - -
30/03:00pm 11.2 SW 14 21 1024.0 - 0.6 - - - - - - -
30/02:30pm 12.5 SW 11 17 1023.6 - 0.6 - - - - - - -
30/02:00pm 12.2 SW 14 21 1023.5 - 0.6 - - - - - - -
30/01:30pm 12.2 SW 11 20 1023.3 - 0.6 - - - - - - -
30/01:00pm 11.7 WSW 11 17 1023.2 - 0.6 - - - - - - -
30/12:30pm 10.4 WSW 10 16 1023.3 - 0.6 - - - - - - -
30/12:00pm 13.1 WSW 11 16 1023.0 - 0.0 - - - - - - -
30/11:30am 12.4 SW 6 9 1022.9 - 0.0 - - - - - - -
30/11:00am 11.1 SW 10 14 1023.0 - 0.0 - - - - - - -
30/10:30am 11.7 W 9 13 1022.8 - 0.0 - - - - - - -
30/10:00am 11.0 WNW 9 13 1022.3 - 0.0 - - - - - - -
30/09:30am 10.4 WNW 9 13 1021.8 - 0.0 - - - - - - -
30/09:00am 10.5 WNW 8 12 1021.5 - 1.6 - - - - - - -
30/08:30am 10.1 WNW 8 11 1021.0 - 1.6 - - - - - - -
30/08:00am 9.8 WNW 7 12 1020.5 - 1.6 - - - - - - -
30/07:30am 9.8 WNW 6 10 1020.2 - 1.6 - - - - - - -
30/07:00am 10.0 WNW 6 10 1019.8 - 1.6 - - - - - - -
30/06:30am 10.1 WNW 8 13 1019.2 - 1.6 - - - - - - -
30/06:00am 10.4 W 8 11 1018.5 - 1.4 Recent precip. - - - - - -
30/05:30am 10.5 W 12 18 1018.1 - 1.4 - - - - - - -
30/05:00am 12.1 NW 4 6 1017.3 - 0.0 - - - - - - -
30/04:30am 12.1 NW 7 12 1017.2 - 0.0 - - - - - - -
30/04:00am 12.1 NNW 9 13 1017.2 - 0.0 - - - - - - -
30/03:30am 11.8 NNW 8 11 1017.5 - 0.0 - - - - - - -
30/03:00am 11.8 NNW 10 15 1017.5 - 0.0 - - - - - - -
30/02:30am 11.5 NNW 10 14 1017.5 - 0.0 - - - - - - -
30/02:00am 11.6 NNW 10 13 1017.4 - 0.0 - - - - - - -
30/01:30am 11.5 NNW 9 17 1017.4 - 0.0 - - - - - - -
30/01:00am 11.6 NNW 11 18 1017.6 - 0.0 - - - - - - -
30/12:30am 11.8 NNW 11 17 1017.7 - 0.0 - - - - - - -
30/12:00am 12.3 NNW 11 18 1018.1 - 0.0 - - - - - - -
 
Date/Time
EST
Temp
°C
Wind Pressure Rain since
9am
mm
Weather Cloud Vis
km
Sea
Height
m
Swell
Dir  Spd
kts
Gust
kts
hPa Trend Height
m
Period
s
Dir
29/11:30pm 12.1 NNW 6 10 1018.4 - 0.0 - - - - - - -
29/11:00pm 12.0 N 6 10 1018.5 - 0.0 - - - - - - -
29/10:30pm 12.1 N 5 9 1018.6 - 0.0 - - - - - - -
29/10:00pm 12.1 NNW 8 13 1019.0 - 0.0 - - - - - - -
29/09:30pm 11.9 NNW 9 12 1019.0 - 0.0 - - - - - - -
29/09:00pm 10.6 NNW 4 8 1019.1 - 0.0 - - - - - - -
29/08:30pm 10.7 N 4 6 1019.3 - 0.0 - - - - - - -
29/08:00pm 10.2 NNW 1 3 1019.2 - 0.0 - - - - - - -
29/07:30pm 10.8 WSW 2 3 1019.4 - 0.0 - - - - - - -
29/07:00pm 11.9 N 5 7 1019.2 - 0.0 - - - - - - -
29/06:30pm 12.2 N 5 7 1019.2 - 0.0 - - - - - - -
29/06:00pm 12.3 N 5 8 1019.1 - 0.0 - - - - - - -
29/05:30pm 12.4 NNW 6 9 1019.0 - 0.0 - - - - - - -
29/05:00pm 12.6 NNW 7 9 1018.9 - 0.0 - - - - - - -
29/04:30pm 12.8 NW 6 9 1018.9 - 0.0 - - - - - - -
29/04:00pm 13.4 NW 10 16 1018.7 - 0.0 - - - - - - -
29/03:30pm 13.1 NW 11 16 1018.7 - 0.0 - - - - - - -
29/03:00pm 13.0 WNW 12 16 1018.5 - 0.0 - - - - - - -
29/02:30pm 14.0 WNW 10 15 1018.4 - 0.0 - - - - - - -
29/02:00pm 13.8 WNW 8 13 1018.6 - 0.0 - - - - - - -
29/01:30pm 14.5 WNW 11 16 1018.6 - 0.0 - - - - - - -
29/01:00pm 14.0 WNW 11 16 1018.5 - 0.0 - - - - - - -
29/12:30pm 13.6 WNW 10 16 1018.8 - 0.0 - - - - - - -
29/12:00pm 12.9 WNW 10 15 1019.0 - 0.0 - - - - - - -
29/11:30am 12.0 WNW 11 16 1019.3 - 0.0 - - - - - - -
29/11:00am 11.7 WNW 9 14 1019.5 - 0.0 - - - - - - -
29/10:30am 11.0 WNW 8 13 1019.7 - 0.0 - - - - - - -
29/10:00am 10.1 WNW 10 15 1019.4 - 0.0 - - - - - - -
29/09:30am 9.2 WNW 9 13 1019.0 - 0.0 - - - - - - -
29/09:00am 8.3 WNW 8 13 1018.9 - 2.0 - - - - - - -
29/08:30am 7.5 WNW 6 10 1018.5 - 2.0 - - - - - - -
29/08:00am 6.6 WNW 6 10 1018.5 - 2.0 - - - - - - -
29/07:30am 5.9 WNW 6 8 1018.2 - 2.0 - - - - - - -
29/07:00am 5.6 NW 6 8 1017.8 - 2.0 - - - - - - -
29/06:30am 5.9 WNW 5 10 1017.3 - 2.0 - - - - - - -
29/06:00am 6.2 WNW 8 13 1016.9 - 2.0 - - - - - - -
29/05:30am 6.1 WNW 5 7 1016.4 - 2.0 - - - - - - -
29/05:00am 6.0 WNW 6 11 1016.2 - 2.0 - - - - - - -
29/04:30am 6.2 WNW 7 11 1015.9 - 2.0 - - - - - - -
29/04:00am 6.2 WNW 7 11 1015.7 - 2.0 - - - - - - -
29/03:30am 6.1 WNW 9 14 1015.4 - 2.0 - - - - - - -
29/03:00am 5.9 WNW 7 10 1015.2 - 2.0 - - - - - - -
29/02:30am 6.0 WNW 7 11 1015.3 - 2.0 - - - - - - -
29/02:00am 6.3 WNW 7 10 1015.0 - 2.0 - - - - - - -
29/01:30am 6.2 WNW 7 10 1014.8 - 2.0 - - - - - - -
29/01:00am 6.7 WNW 8 12 1014.5 - 2.0 - - - - - - -
29/12:30am 6.5 WNW 8 11 1014.4 - 2.0 - - - - - - -
29/12:00am 6.7 WNW 9 15 1014.2 - 2.0 - - - - - - -
 
Date/Time
EST
Temp
°C
Wind Pressure Rain since
9am
mm
Weather Cloud Vis
km
Sea
Height
m
Swell
Dir  Spd
kts
Gust
kts
hPa Trend Height
m
Period
s
Dir
28/11:30pm 6.8 WNW 9 13 1013.9 - 2.0 - - - - - - -
28/11:00pm 6.9 WNW 8 13 1013.7 - 2.0 - - - - - - -
28/10:30pm 6.7 WNW 8 12 1013.2 - 2.0 - - - - - - -
28/10:00pm 7.1 WNW 7 11 1013.1 - 2.0 - - - - - - -
28/09:30pm 7.1 WNW 8 13 1012.8 - 2.0 - - - - - - -
28/09:00pm 7.0 WNW 6 10 1012.2 - 2.0 - - - - - - -
28/08:30pm 7.6 WNW 8 12 1011.9 - 2.0 - - - - - - -
28/08:00pm 7.8 WNW 8 13 1011.7 - 2.0 - - - - - - -
28/07:30pm 7.7 WNW 8 12 1011.3 - 2.0 - - - - - - -
28/07:00pm 7.9 WNW 9 14 1010.7 - 2.0 - - - - - - -
28/06:30pm 8.3 WNW 8 11 1010.4 - 2.0 - - - - - - -
28/06:00pm 8.6 WNW 5 10 1009.9 - 2.0 - - - - - - -
28/05:30pm 8.1 NW 5 7 1009.4 - 2.0 - - - - - - -
28/05:00pm 8.3 NW 5 9 1008.9 - 2.0 - - - - - - -
28/04:30pm 9.2 WNW 9 13 1008.6 - 2.0 - - - - - - -
28/04:00pm 9.5 W 8 11 1008.2 - 2.0 - - - - - - -
28/03:30pm 7.9 W 12 18 1008.1 - 1.8 - - - - - - -
28/03:08pm 9.6 W 12 31 1007.9 - 1.0 - - - - - - -
28/03:00pm 10.8 WNW 10 14 1007.4 - 0.8 - - - - - - -
28/02:30pm 11.0 WNW 9 16 1007.3 - 0.8 - - - - - - -
28/02:00pm 10.3 NW 10 14 1007.2 - 0.8 - - - - - - -
28/01:30pm 9.7 WNW 12 19 1007.3 - 0.8 - - - - - - -
28/01:00pm 12.2 W 15 22 1007.0 - 0.0 - - - - - - -
28/12:30pm 13.3 WNW 9 16 1007.0 - 0.0 - - - - - - -
28/12:00pm 12.1 WNW 14 20 1007.4 - 0.0 - - - - - - -
28/11:30am 11.3 WNW 14 21 1007.9 - 0.0 - - - - - - -
28/11:00am 12.6 WNW 10 16 1007.8 - 0.0 - - - - - - -
28/10:30am 11.7 NW 11 15 1007.9 - 0.0 - - - - - - -
28/10:00am 10.7 NW 9 13 1007.6 - 0.0 - - - - - - -
28/09:30am 10.8 NW 8 12 1007.5 - 0.0 - - - - - - -
28/09:00am 10.7 WNW 8 13 1007.3 - 12.6 - - - - - - -
28/08:30am 9.9 NW 9 15 1007.2 - 12.6 - - - - - - -
28/08:00am 9.4 NW 7 9 1007.2 - 12.6 - - - - - - -
28/07:30am 9.2 NW 6 9 1006.9 - 12.6 - - - - - - -
28/07:00am 9.4 NW 6 9 1006.9 - 12.6 - - - - - - -
28/06:30am 9.4 NW 7 10 1006.6 - 12.6 - - - - - - -
28/06:00am 9.6 NW 7 9 1006.5 - 12.6 - - - - - - -
28/05:30am 10.0 NW 8 12 1006.4 - 12.6 - - - - - - -
28/05:00am 10.3 NW 7 13 1006.3 - 12.6 - - - - - - -
28/04:30am 10.4 NW 8 13 1006.3 - 12.6 - - - - - - -
28/04:00am 10.3 NW 10 17 1006.6 - 12.6 - - - - - - -
28/03:30am 10.3 NW 7 11 1006.3 - 12.6 - - - - - - -
28/03:00am 10.1 NW 6 9 1006.5 - 12.6 - - - - - - -
28/02:30am 10.1 NNW 6 8 1006.2 - 12.6 - - - - - - -
28/02:00am 10.3 N 7 11 1006.1 - 12.6 - - - - - - -
28/01:30am 10.3 N 9 15 1006.8 - 12.2 - - - - - - -
28/01:00am 10.4 NNW 7 12 1007.4 - 10.6 - - - - - - -
28/12:30am 10.6 NW 9 13 1007.9 - 7.4 - - - - - - -
28/12:00am 10.6 NW 8 13 1008.2 - 6.6 Rain - - - - - -
 
Date/Time
EST
Temp
°C
Wind Pressure Rain since
9am
mm
Weather Cloud Vis
km
Sea
Height
m
Swell
Dir  Spd
kts
Gust
kts
hPa Trend Height
m
Period
s
Dir
27/11:30pm 10.4 NW 10 14 1008.6 - 4.6 - - - - - - -
27/11:00pm 13.1 W 13 18 1007.7 - 0.2 - - - - - - -
27/10:30pm 14.5 N 10 14 1007.4 - 0.2 - - - - - - -
27/10:00pm 14.2 N 9 16 1007.7 - 0.2 - - - - - - -
27/09:30pm 14.1 N 11 15 1008.0 - 0.2 - - - - - - -
27/09:00pm 14.5 N 11 16 1008.3 - 0.2 Recent precip. - - - - - -

Other Formats:

Comma delimited format used in spreadsheet applications
http://www.bom.gov.au/fwo/IDV60701/IDV60701.94857.axf

JavaScript Object Notation format (JSON) in row-major order
http://www.bom.gov.au/fwo/IDV60701/IDV60701.94857.json